createdAt,value
2023-05-02T00:01:50.443Z,20.13
2023-05-02T00:04:43.629Z,20.17
2023-05-02T00:07:15.089Z,21.42
2023-05-02T00:10:07.507Z,22.25
2023-05-02T00:12:38.640Z,21.75
2023-05-02T00:15:10.724Z,20.58
2023-05-02T00:17:45.168Z,21.92
2023-05-02T00:20:36.215Z,22.13
2023-05-02T00:23:07.528Z,21.65
2023-05-02T00:25:38.904Z,22.13
2023-05-02T00:28:11.108Z,18.17
2023-05-02T00:30:45.692Z,21.63
2023-05-02T00:33:17.482Z,20.30
2023-05-02T00:35:48.792Z,20.25
2023-05-02T00:38:19.936Z,21.45
2023-05-02T00:41:04.616Z,22.27
2023-05-02T00:43:37.034Z,20.65
2023-05-02T00:46:12.674Z,19.73
2023-05-02T00:48:43.983Z,20.98
2023-05-02T00:51:36.205Z,20.60
2023-05-02T00:54:08.620Z,20.02
2023-05-02T00:56:39.642Z,20.60
2023-05-02T00:59:12.380Z,21.30
2023-05-02T01:02:07.259Z,20.05
2023-05-02T01:04:58.472Z,17.10
2023-05-02T01:07:48.385Z,19.90
2023-05-02T01:10:26.656Z,21.55
2023-05-02T01:13:02.721Z,21.30
2023-05-02T01:15:34.929Z,22.35
2023-05-02T01:18:07.175Z,21.10
2023-05-02T01:20:41.187Z,20.15
2023-05-02T01:23:41.784Z,20.67
2023-05-02T01:26:42.556Z,19.38
2023-05-02T01:29:18.136Z,19.92
2023-05-02T01:31:51.376Z,20.63
2023-05-02T01:34:29.051Z,19.77
2023-05-02T01:37:05.170Z,20.60
2023-05-02T01:39:37.029Z,20.65
2023-05-02T01:42:29.011Z,21.15
2023-05-02T01:45:02.499Z,21.05
2023-05-02T01:47:40.653Z,20.30
2023-05-02T01:50:15.629Z,19.92
2023-05-02T01:52:54.167Z,20.15
2023-05-02T01:55:26.970Z,19.35
2023-05-02T01:58:00.769Z,19.70
2023-05-02T02:00:33.574Z,20.48
2023-05-02T02:03:26.646Z,21.05
2023-05-02T02:06:19.334Z,20.52
2023-05-02T02:08:50.854Z,20.70
2023-05-02T02:11:26.412Z,21.65
2023-05-02T02:14:14.214Z,20.88
2023-05-02T02:19:35.209Z,23.15
2023-05-02T02:22:08.641Z,19.75
2023-05-02T02:24:40.881Z,20.02
2023-05-02T02:27:13.520Z,19.10
2023-05-02T02:29:44.585Z,19.20
2023-05-02T02:35:23.318Z,17.02
2023-05-02T02:38:12.194Z,15.48
2023-05-02T02:41:04.694Z,14.50
2023-05-02T02:43:54.003Z,13.60
2023-05-02T02:47:07.758Z,13.15
2023-05-02T02:49:51.185Z,12.68
2023-05-02T02:52:29.060Z,13.48
2023-05-02T02:55:05.453Z,13.10
2023-05-02T02:57:44.083Z,13.05
2023-05-02T03:00:26.480Z,12.65
2023-05-02T03:02:58.836Z,12.25
2023-05-02T03:05:31.985Z,13.02
2023-05-02T03:08:25.289Z,11.27
2023-05-02T03:10:58.011Z,11.80
2023-05-02T03:13:30.269Z,13.25
2023-05-02T03:16:30.637Z,13.25
2023-05-02T03:19:05.524Z,12.48
2023-05-02T03:21:37.213Z,12.32
2023-05-02T03:24:17.802Z,12.63
2023-05-02T03:26:51.639Z,12.48
2023-05-02T03:29:43.739Z,11.00
2023-05-02T03:32:22.250Z,11.07
2023-05-02T03:34:54.224Z,10.98
2023-05-02T03:37:28.259Z,13.15
2023-05-02T03:40:02.039Z,11.20
2023-05-02T03:42:35.616Z,11.65
2023-05-02T03:45:07.680Z,11.50
2023-05-02T03:48:00.800Z,9.60
2023-05-02T03:50:32.565Z,9.50
2023-05-02T03:53:04.368Z,12.25
2023-05-02T03:55:45.412Z,23.83
2023-05-02T03:58:26.826Z,14.07
2023-05-02T04:01:02.699Z,20.08
2023-05-02T04:03:34.448Z,10.38
2023-05-02T04:06:09.857Z,18.10
2023-05-02T04:09:01.053Z,10.73
2023-05-02T04:11:39.462Z,48.72
2023-05-02T04:14:15.468Z,23.42
2023-05-02T04:17:06.570Z,18.88
2023-05-02T04:19:44.692Z,15.25
2023-05-02T04:25:35.652Z,14.10
2023-05-02T04:28:37.263Z,18.38
2023-05-02T04:31:08.933Z,16.15
2023-05-02T04:34:00.256Z,25.40
2023-05-02T04:36:37.825Z,14.07
2023-05-02T04:41:46.647Z,31.40
2023-05-02T04:44:20.304Z,14.95
2023-05-02T04:46:53.134Z,14.18
2023-05-02T04:49:26.014Z,12.95
2023-05-02T04:54:36.290Z,12.55
2023-05-02T04:57:09.523Z,12.02
2023-05-02T05:00:04.389Z,12.00
2023-05-02T05:02:35.767Z,11.75
2023-05-02T05:05:07.094Z,11.25
2023-05-02T05:07:42.686Z,12.57
2023-05-02T05:10:15.415Z,18.60
2023-05-02T05:15:56.356Z,14.52
2023-05-02T05:18:31.905Z,15.07
2023-05-02T05:21:16.764Z,13.13
2023-05-02T05:23:49.383Z,12.38
2023-05-02T05:26:27.967Z,12.00
2023-05-02T05:29:21.937Z,12.38
2023-05-02T05:31:56.351Z,11.98
2023-05-02T05:34:29.192Z,11.90
2023-05-02T05:37:26.069Z,12.55
2023-05-02T05:40:04.470Z,11.75
2023-05-02T05:42:35.772Z,13.10
2023-05-02T05:45:14.059Z,13.07
2023-05-02T05:47:47.684Z,12.55
2023-05-02T05:50:19.060Z,12.90
2023-05-02T05:52:51.101Z,12.50
2023-05-02T05:55:52.527Z,12.40
2023-05-02T05:58:43.381Z,12.25
2023-05-02T06:01:17.107Z,12.30
2023-05-02T06:04:09.622Z,13.52
2023-05-02T06:07:00.614Z,13.90
2023-05-02T06:12:37.990Z,12.45
2023-05-02T06:15:10.104Z,11.10
2023-05-02T06:17:46.083Z,12.15
2023-05-02T06:20:19.000Z,12.85
2023-05-02T06:22:50.413Z,12.90
2023-05-02T06:25:24.791Z,12.63
2023-05-02T06:27:59.736Z,13.05
2023-05-02T06:30:50.888Z,13.07
2023-05-02T06:33:22.793Z,12.95
2023-05-02T06:35:59.992Z,12.18
2023-05-02T06:38:32.794Z,12.75
2023-05-02T06:41:04.248Z,12.48
2023-05-02T06:43:39.563Z,13.45
2023-05-02T06:46:33.503Z,14.35
2023-05-02T06:49:04.526Z,12.57
2023-05-02T06:51:36.759Z,13.02
2023-05-02T06:54:14.698Z,13.05
2023-05-02T06:56:46.363Z,13.52
2023-05-02T06:59:37.826Z,13.57
2023-05-02T07:02:09.214Z,13.25
2023-05-02T07:04:40.267Z,12.93
2023-05-02T07:07:11.656Z,11.68
2023-05-02T07:10:04.973Z,11.88
2023-05-02T07:12:36.299Z,13.15
2023-05-02T07:15:09.372Z,13.43
2023-05-02T07:17:43.420Z,14.83
2023-05-02T07:20:16.366Z,14.07
2023-05-02T07:23:40.070Z,14.75
2023-05-02T07:26:13.127Z,12.07
2023-05-02T07:28:45.854Z,12.93
2023-05-02T07:31:18.813Z,13.55
2023-05-02T07:33:50.543Z,13.13
2023-05-02T07:36:34.527Z,25.10
2023-05-02T07:39:06.272Z,13.07
2023-05-02T07:41:39.606Z,11.67
2023-05-02T07:44:30.403Z,14.25
2023-05-02T07:47:01.467Z,13.00
2023-05-02T07:49:37.666Z,13.15
2023-05-02T07:52:35.420Z,14.20
2023-05-02T07:55:28.057Z,13.80
2023-05-02T07:58:40.103Z,13.35
2023-05-02T08:01:12.898Z,13.13
2023-05-02T08:03:55.370Z,14.60
2023-05-02T08:07:06.007Z,11.75
2023-05-02T08:10:20.880Z,11.82
2023-05-02T08:12:52.372Z,14.25
2023-05-02T08:15:24.440Z,14.48
2023-05-02T08:18:02.038Z,14.82
2023-05-02T08:20:33.197Z,14.70
2023-05-02T08:23:04.319Z,14.65
2023-05-02T08:25:36.356Z,14.82
2023-05-02T08:28:08.883Z,14.75
2023-05-02T08:30:39.882Z,12.38
2023-05-02T08:33:10.973Z,13.63
2023-05-02T08:35:45.720Z,14.25
2023-05-02T08:38:18.752Z,14.20
2023-05-02T08:40:52.502Z,14.15
2023-05-02T08:43:25.822Z,13.93
2023-05-02T08:46:38.058Z,14.45
2023-05-02T08:49:10.205Z,15.82
2023-05-02T08:51:43.094Z,13.40
2023-05-02T08:54:14.438Z,11.73
2023-05-02T08:56:45.969Z,12.88
2023-05-02T08:59:18.456Z,15.30
2023-05-02T09:01:52.203Z,12.15
2023-05-02T09:07:13.411Z,15.23
2023-05-02T09:09:44.921Z,15.30
2023-05-02T09:12:17.940Z,14.73
2023-05-02T09:14:51.172Z,17.17
2023-05-02T09:17:53.267Z,15.23
2023-05-02T09:20:25.698Z,17.20
2023-05-02T09:22:57.137Z,16.63
2023-05-02T09:25:28.552Z,17.48
2023-05-02T09:28:10.900Z,18.25
2023-05-02T09:30:42.643Z,15.07
2023-05-02T09:33:19.335Z,17.10
2023-05-02T09:35:57.535Z,17.38
2023-05-02T09:38:31.574Z,14.60
2023-05-02T09:41:06.749Z,18.63
2023-05-02T09:44:01.279Z,18.17
2023-05-02T09:46:44.774Z,18.67
2023-05-02T09:49:26.675Z,18.23
2023-05-02T09:52:12.877Z,18.65
2023-05-02T09:54:44.316Z,18.10
2023-05-02T09:57:17.928Z,19.13
2023-05-02T10:00:01.357Z,17.70
2023-05-02T10:02:43.575Z,17.30
2023-05-02T10:05:19.312Z,17.65
2023-05-02T10:07:53.511Z,23.67
2023-05-02T10:10:24.762Z,24.27
2023-05-02T10:12:57.950Z,20.02
2023-05-02T10:16:06.439Z,22.20
2023-05-02T10:18:45.390Z,22.73
2023-05-02T10:21:22.360Z,21.42
2023-05-02T10:23:55.261Z,22.45
2023-05-02T10:26:26.913Z,16.90
2023-05-02T10:29:09.890Z,23.55
2023-05-02T10:31:44.976Z,39.17
2023-05-02T10:34:18.756Z,27.63
2023-05-02T10:36:51.130Z,20.15
2023-05-02T10:39:26.818Z,22.10
2023-05-02T10:41:59.268Z,22.87
2023-05-02T10:44:41.647Z,18.77
2023-05-02T10:47:23.407Z,17.90
2023-05-02T10:49:55.975Z,19.88
2023-05-02T10:52:34.861Z,20.83
2023-05-02T10:55:21.569Z,20.30
2023-05-02T10:58:02.028Z,18.95
2023-05-02T11:00:37.519Z,19.13
2023-05-02T11:03:11.342Z,20.98
2023-05-02T11:06:03.014Z,70.00
2023-05-02T11:08:37.179Z,20.45
2023-05-02T11:11:26.494Z,23.58
2023-05-02T11:13:59.020Z,20.05
2023-05-02T11:17:29.280Z,21.17
2023-05-02T11:20:29.483Z,21.38
2023-05-02T11:23:04.153Z,18.52
2023-05-02T11:25:38.124Z,26.67
2023-05-02T11:30:44.200Z,20.90
2023-05-02T11:33:21.210Z,21.55
2023-05-02T11:35:52.701Z,18.25
2023-05-02T11:38:43.604Z,21.25
2023-05-02T11:41:16.457Z,19.35
2023-05-02T11:43:49.617Z,18.58
2023-05-02T11:46:41.441Z,22.77
2023-05-02T11:49:33.150Z,22.67
2023-05-02T11:52:04.981Z,19.42
2023-05-02T11:54:36.492Z,19.73
2023-05-02T11:57:09.986Z,25.48
2023-05-02T12:00:04.152Z,22.73
2023-05-02T12:02:39.525Z,22.00
2023-05-02T12:05:11.947Z,22.50
2023-05-02T12:07:44.119Z,21.45
2023-05-02T12:10:35.585Z,19.55
2023-05-02T12:13:28.225Z,21.35
2023-05-02T12:16:05.996Z,26.37
2023-05-02T12:18:39.859Z,24.55
2023-05-02T12:23:49.572Z,19.65
2023-05-02T12:26:26.846Z,18.70
2023-05-02T12:29:03.880Z,22.75
2023-05-02T12:31:35.743Z,21.58
2023-05-02T12:34:09.741Z,18.63
2023-05-02T12:36:47.914Z,19.05
2023-05-02T12:39:46.689Z,21.60
2023-05-02T12:42:21.566Z,21.38
2023-05-02T12:45:22.519Z,24.23
2023-05-02T12:47:54.962Z,22.85
2023-05-02T12:51:27.528Z,25.05
2023-05-02T12:53:58.857Z,19.90
2023-05-02T12:56:57.052Z,21.15
2023-05-02T12:59:33.415Z,24.27
2023-05-02T13:02:07.684Z,23.40
2023-05-02T13:04:56.220Z,24.02
2023-05-02T13:07:29.206Z,22.23
2023-05-02T13:10:41.421Z,22.55
2023-05-02T13:13:12.929Z,22.25
2023-05-02T13:15:45.078Z,23.40
2023-05-02T13:18:16.534Z,22.77
2023-05-02T13:20:52.965Z,22.73
2023-05-02T13:23:24.481Z,22.10
2023-05-02T13:25:56.002Z,22.60
2023-05-02T13:28:28.410Z,22.88
2023-05-02T13:30:59.931Z,21.25
2023-05-02T13:33:33.996Z,22.80
2023-05-02T13:36:06.681Z,22.92
2023-05-02T13:38:41.310Z,23.52
2023-05-02T13:41:33.410Z,21.17
2023-05-02T13:44:24.160Z,22.63
2023-05-02T13:46:56.004Z,22.35
2023-05-02T13:49:27.618Z,23.10
2023-05-02T13:52:04.463Z,22.27
2023-05-02T13:54:38.470Z,20.98
2023-05-02T13:57:27.620Z,20.67
2023-05-02T14:00:01.014Z,21.50
2023-05-02T14:02:58.545Z,23.00
2023-05-02T14:05:49.797Z,20.58
2023-05-02T14:08:23.953Z,19.88
2023-05-02T14:10:54.994Z,66.32
2023-05-02T14:13:52.186Z,26.63
2023-05-02T14:16:24.044Z,26.67
2023-05-02T14:18:56.856Z,38.67
2023-05-02T14:21:47.687Z,36.33
2023-05-02T14:24:20.954Z,21.15
2023-05-02T14:26:54.367Z,32.30
2023-05-02T14:29:26.238Z,38.67
2023-05-02T14:32:17.244Z,27.95
2023-05-02T14:35:15.113Z,30.27
2023-05-02T14:37:47.422Z,25.70
2023-05-02T14:40:23.691Z,42.75
2023-05-02T14:42:54.873Z,38.47
2023-05-02T14:45:27.749Z,51.22
2023-05-02T14:48:01.021Z,41.28
2023-05-02T14:50:52.150Z,35.05
2023-05-02T14:53:44.361Z,30.73
2023-05-02T14:56:36.949Z,26.73
2023-05-02T14:59:08.461Z,21.65
2023-05-02T15:01:41.239Z,22.52
2023-05-02T15:04:14.928Z,36.75
2023-05-02T15:07:17.067Z,24.02
2023-05-02T15:10:10.401Z,21.08
2023-05-02T15:12:45.038Z,21.75
2023-05-02T15:15:18.929Z,23.00
2023-05-02T15:17:50.674Z,29.40
2023-05-02T15:20:42.803Z,23.50
2023-05-02T15:23:14.152Z,21.48
2023-05-02T15:25:50.849Z,21.73
2023-05-02T15:30:53.572Z,21.38
2023-05-02T15:33:25.084Z,28.13
2023-05-02T15:35:59.548Z,22.63
2023-05-02T15:38:36.221Z,23.77
2023-05-02T15:41:12.082Z,22.05
2023-05-02T15:43:44.003Z,23.37
2023-05-02T15:47:01.654Z,23.98
2023-05-02T15:49:57.106Z,21.45
2023-05-02T15:52:28.145Z,22.40
2023-05-02T15:55:02.521Z,21.33
2023-05-02T15:57:36.653Z,21.60
2023-05-02T16:00:09.386Z,21.42
2023-05-02T16:02:43.245Z,22.55
2023-05-02T16:05:16.248Z,23.95
2023-05-02T16:08:09.997Z,21.55
2023-05-02T16:11:02.155Z,22.92
2023-05-02T16:13:34.280Z,22.25
2023-05-02T16:16:05.411Z,22.23
2023-05-02T16:18:57.843Z,21.42
2023-05-02T16:21:30.454Z,20.55
2023-05-02T16:24:21.225Z,21.25
2023-05-02T16:26:54.942Z,21.33
2023-05-02T16:29:26.366Z,19.30
2023-05-02T16:32:05.816Z,21.88
2023-05-02T16:34:42.659Z,19.45
2023-05-02T16:37:33.510Z,20.15
2023-05-02T16:40:08.038Z,20.60
2023-05-02T16:42:45.222Z,21.33
2023-05-02T16:47:49.300Z,21.80
2023-05-02T16:50:20.780Z,19.08
2023-05-02T16:52:53.918Z,19.67
2023-05-02T16:55:25.139Z,19.52
2023-05-02T16:57:58.184Z,20.15
2023-05-02T17:00:31.133Z,22.35
2023-05-02T17:03:05.006Z,20.33
2023-05-02T17:05:37.220Z,18.80
2023-05-02T17:08:28.617Z,21.10
2023-05-02T17:11:00.033Z,20.50
2023-05-02T17:13:31.397Z,19.73
2023-05-02T17:16:02.835Z,20.02
2023-05-02T17:18:36.332Z,21.00
2023-05-02T17:21:09.291Z,21.02
2023-05-02T17:23:40.879Z,21.90
2023-05-02T17:26:16.968Z,17.48
2023-05-02T17:28:48.060Z,16.70
2023-05-02T17:31:40.718Z,17.30
2023-05-02T17:34:14.614Z,19.70
2023-05-02T17:37:08.829Z,19.65
2023-05-02T17:39:42.252Z,20.25
2023-05-02T17:42:14.812Z,20.70
2023-05-02T17:44:49.168Z,18.40
2023-05-02T17:47:40.181Z,18.38
2023-05-02T17:50:11.781Z,18.73
2023-05-02T17:52:43.223Z,20.77
2023-05-02T17:55:14.228Z,19.60
2023-05-02T17:57:46.196Z,16.98
2023-05-02T18:00:17.796Z,19.05
2023-05-02T18:03:10.171Z,19.60
2023-05-02T18:05:42.037Z,17.50
2023-05-02T18:08:14.372Z,19.92
2023-05-02T18:10:46.170Z,19.17
2023-05-02T18:13:19.021Z,20.38
2023-05-02T18:15:57.585Z,20.25
2023-05-02T18:18:28.717Z,19.27
2023-05-02T18:21:01.653Z,19.58
2023-05-02T18:23:34.213Z,18.67
2023-05-02T18:26:05.348Z,16.60
2023-05-02T18:28:37.053Z,19.13
2023-05-02T18:31:08.599Z,19.70
2023-05-02T18:33:40.069Z,20.88
2023-05-02T18:36:11.694Z,17.95
2023-05-02T18:38:43.609Z,19.20
2023-05-02T18:41:54.209Z,19.45
2023-05-02T18:44:26.639Z,20.73
2023-05-02T18:46:59.201Z,20.13
2023-05-02T18:49:30.660Z,18.75
2023-05-02T18:52:02.089Z,17.10
2023-05-02T18:54:35.167Z,17.10
2023-05-02T18:57:06.585Z,19.30
2023-05-02T18:59:38.005Z,19.08
2023-05-02T19:02:09.857Z,18.85
2023-05-02T19:04:41.238Z,19.02
2023-05-02T19:07:12.299Z,19.67
2023-05-02T19:09:43.674Z,18.13
2023-05-02T19:12:14.857Z,19.92
2023-05-02T19:14:46.510Z,17.25
2023-05-02T19:17:17.849Z,18.55
2023-05-02T19:19:49.936Z,18.05
2023-05-02T19:22:23.653Z,19.13
2023-05-02T19:24:54.632Z,18.98
2023-05-02T19:27:25.909Z,17.15
2023-05-02T19:29:57.367Z,18.58
2023-05-02T19:32:29.867Z,18.25
2023-05-02T19:35:01.306Z,15.77
2023-05-02T19:37:32.955Z,15.48
2023-05-02T19:40:04.017Z,16.05
2023-05-02T19:42:35.316Z,15.02
2023-05-02T19:45:06.464Z,16.05
2023-05-02T19:47:38.072Z,16.25
2023-05-02T19:50:09.375Z,16.20
2023-05-02T19:52:43.174Z,16.27
2023-05-02T19:57:46.113Z,16.17
2023-05-02T20:00:17.585Z,17.05
2023-05-02T20:02:50.664Z,15.18
2023-05-02T20:05:23.110Z,15.75
2023-05-02T20:07:54.080Z,14.98
2023-05-02T20:10:25.281Z,15.25
2023-05-02T20:12:56.476Z,15.40
2023-05-02T20:15:27.753Z,16.60
2023-05-02T20:17:59.669Z,16.25
2023-05-02T20:20:31.402Z,17.10
2023-05-02T20:23:02.539Z,16.70
2023-05-02T20:25:33.641Z,16.42
2023-05-02T20:28:05.100Z,17.80
2023-05-02T20:30:36.331Z,16.48
2023-05-02T20:33:15.690Z,14.30
2023-05-02T20:35:48.185Z,16.08
2023-05-02T20:38:19.324Z,16.77
2023-05-02T20:40:50.318Z,14.48
2023-05-02T20:43:21.715Z,15.07
2023-05-02T20:45:53.072Z,16.13
2023-05-02T20:48:24.374Z,15.73
2023-05-02T20:50:58.519Z,15.60
2023-05-02T20:53:29.684Z,14.48
2023-05-02T20:56:00.777Z,14.52
2023-05-02T20:58:31.807Z,15.38
2023-05-02T21:01:03.029Z,14.43
2023-05-02T21:03:37.953Z,14.85
2023-05-02T21:06:09.452Z,14.35
2023-05-02T21:08:40.478Z,14.57
2023-05-02T21:11:16.119Z,16.15
2023-05-02T21:13:47.638Z,16.20
2023-05-02T21:16:22.969Z,15.55
2023-05-02T21:18:55.258Z,15.57
2023-05-02T21:21:26.606Z,14.10
2023-05-02T21:23:57.729Z,15.55
2023-05-02T21:26:28.933Z,15.75
2023-05-02T21:29:00.445Z,15.93
2023-05-02T21:31:31.861Z,15.30
2023-05-02T21:34:03.508Z,14.50
2023-05-02T21:36:35.956Z,16.60
2023-05-02T21:39:07.690Z,16.88
2023-05-02T21:41:39.049Z,16.17
2023-05-02T21:44:15.326Z,15.77
2023-05-02T21:46:48.931Z,13.38
2023-05-02T21:49:20.390Z,15.85
2023-05-02T21:51:51.593Z,13.98
2023-05-02T21:54:22.881Z,14.35
2023-05-02T21:56:54.305Z,14.18
2023-05-02T21:59:25.547Z,14.27
2023-05-02T22:01:57.097Z,15.15
2023-05-02T22:04:28.257Z,13.75
2023-05-02T22:06:59.491Z,14.68
2023-05-02T22:09:33.261Z,13.85
2023-05-02T22:12:05.370Z,19.23
2023-05-02T22:14:44.402Z,14.43
2023-05-02T22:17:20.327Z,21.05
2023-05-02T22:19:53.715Z,14.57
2023-05-02T22:22:24.806Z,14.30
2023-05-02T22:24:55.870Z,14.38
2023-05-02T22:27:27.092Z,13.60
2023-05-02T22:29:58.220Z,14.05
2023-05-02T22:32:29.499Z,14.65
2023-05-02T22:35:01.003Z,13.68
2023-05-02T22:37:32.443Z,14.45
2023-05-02T22:40:03.992Z,14.05
2023-05-02T22:42:35.462Z,13.02
2023-05-02T22:45:08.999Z,12.57
2023-05-02T22:47:40.226Z,11.77
2023-05-02T22:50:14.625Z,11.75
2023-05-02T22:52:46.128Z,11.40
2023-05-02T22:55:17.723Z,11.07
2023-05-02T22:57:51.686Z,11.57
2023-05-02T23:00:31.816Z,10.63
2023-05-02T23:03:05.296Z,10.85
2023-05-02T23:05:39.318Z,11.20
2023-05-02T23:08:14.760Z,10.43
2023-05-02T23:10:46.844Z,10.38
2023-05-02T23:13:18.147Z,9.98
2023-05-02T23:15:49.782Z,9.80
2023-05-02T23:18:21.144Z,9.57
2023-05-02T23:20:52.417Z,9.80
2023-05-02T23:23:24.760Z,10.07
2023-05-02T23:25:56.647Z,9.90
2023-05-02T23:28:28.817Z,9.07
2023-05-02T23:31:00.335Z,9.25
2023-05-02T23:33:32.585Z,9.70
2023-05-02T23:36:03.932Z,9.30
2023-05-02T23:38:37.859Z,9.65
2023-05-02T23:43:43.014Z,9.85
2023-05-02T23:46:14.352Z,9.70
2023-05-02T23:48:45.883Z,9.90
2023-05-02T23:51:17.248Z,10.85
2023-05-02T23:53:48.685Z,10.07
2023-05-02T23:56:19.952Z,8.88
2023-05-02T23:58:51.094Z,9.95
